sensor_id;sensor_type;location;lat;lon;timestamp;pressure;altitude;pressure_sealevel;temperature;humidity
4449;BME280;2237;51.870;6.160;2023-02-28T00:00:21;103004.03;;;2.48;96.38
4449;BME280;2237;51.870;6.160;2023-02-28T00:02:48;103006.44;;;2.43;97.23
4449;BME280;2237;51.870;6.160;2023-02-28T00:05:17;103007.16;;;2.41;97.83
4449;BME280;2237;51.870;6.160;2023-02-28T00:07:44;103000.16;;;2.38;98.57
4449;BME280;2237;51.870;6.160;2023-02-28T00:10:14;103002.88;;;2.41;98.76
4449;BME280;2237;51.870;6.160;2023-02-28T00:12:41;103000.03;;;2.35;100.00
4449;BME280;2237;51.870;6.160;2023-02-28T00:15:09;102999.31;;;2.38;100.00
4449;BME280;2237;51.870;6.160;2023-02-28T00:17:37;102998.56;;;2.40;100.00
4449;BME280;2237;51.870;6.160;2023-02-28T00:20:05;102998.72;;;2.43;100.00
4449;BME280;2237;51.870;6.160;2023-02-28T00:22:37;102998.72;;;2.43;99.88
4449;BME280;2237;51.870;6.160;2023-02-28T00:25:04;102995.31;;;2.44;99.94
4449;BME280;2237;51.870;6.160;2023-02-28T00:27:34;102997.09;;;2.45;99.47
4449;BME280;2237;51.870;6.160;2023-02-28T00:30:01;102996.94;;;2.42;99.29
4449;BME280;2237;51.870;6.160;2023-02-28T00:32:27;102997.81;;;2.43;99.93
4449;BME280;2237;51.870;6.160;2023-02-28T00:34:54;102990.78;;;2.39;99.92
4449;BME280;2237;51.870;6.160;2023-02-28T00:37:20;102990.78;;;2.39;99.90
4449;BME280;2237;51.870;6.160;2023-02-28T00:39:46;102994.22;;;2.39;100.00
4449;BME280;2237;51.870;6.160;2023-02-28T00:42:13;102991.50;;;2.36;100.00
4449;BME280;2237;51.870;6.160;2023-02-28T00:44:39;102993.94;;;2.33;100.00
4449;BME280;2237;51.870;6.160;2023-02-28T00:47:06;102996.50;;;2.33;100.00
4449;BME280;2237;51.870;6.160;2023-02-28T00:49:32;103001.59;;;2.32;100.00
4449;BME280;2237;51.870;6.160;2023-02-28T00:51:59;103006.50;;;2.27;100.00
4449;BME280;2237;51.870;6.160;2023-02-28T00:54:25;103003.16;;;2.28;100.00
4449;BME280;2237;51.870;6.160;2023-02-28T00:56:52;102994.78;;;2.32;100.00
4449;BME280;2237;51.870;6.160;2023-02-28T00:59:18;103005.16;;;2.35;100.00
4449;BME280;2237;51.870;6.160;2023-02-28T01:01:46;102999.31;;;2.38;100.00
4449;BME280;2237;51.870;6.160;2023-02-28T01:04:14;103002.88;;;2.41;100.00
4449;BME280;2237;51.870;6.160;2023-02-28T01:06:40;102999.72;;;2.47;100.00
4449;BME280;2237;51.870;6.160;2023-02-28T01:09:07;103001.69;;;2.52;100.00
4449;BME280;2237;51.870;6.160;2023-02-28T01:11:34;103001.97;;;2.58;100.00
4449;BME280;2237;51.870;6.160;2023-02-28T01:14:01;103001.38;;;2.64;100.00
4449;BME280;2237;51.870;6.160;2023-02-28T01:16:28;103008.47;;;2.69;100.00
4449;BME280;2237;51.870;6.160;2023-02-28T01:18:54;102999.00;;;2.68;100.00
4449;BME280;2237;51.870;6.160;2023-02-28T01:21:21;103011.19;;;2.72;100.00
4449;BME280;2237;51.870;6.160;2023-02-28T01:23:48;103012.94;;;2.73;100.00
4449;BME280;2237;51.870;6.160;2023-02-28T01:26:24;103007.31;;;2.63;100.00
4449;BME280;2237;51.870;6.160;2023-02-28T01:28:52;103005.25;;;2.56;100.00
4449;BME280;2237;51.870;6.160;2023-02-28T01:31:20;103005.41;;;2.59;100.00
4449;BME280;2237;51.870;6.160;2023-02-28T01:33:47;103000.75;;;2.69;100.00
4449;BME280;2237;51.870;6.160;2023-02-28T01:36:16;103007.91;;;2.76;100.00
4449;BME280;2237;51.870;6.160;2023-02-28T01:38:44;103004.72;;;2.82;100.00
4449;BME280;2237;51.870;6.160;2023-02-28T01:41:26;103008.41;;;2.87;100.00
4449;BME280;2237;51.870;6.160;2023-02-28T01:44:05;103000.47;;;2.82;100.00
4449;BME280;2237;51.870;6.160;2023-02-28T01:46:34;103001.63;;;2.89;100.00
4449;BME280;2237;51.870;6.160;2023-02-28T01:49:12;103001.69;;;2.91;100.00
4449;BME280;2237;51.870;6.160;2023-02-28T01:51:46;103000.69;;;2.87;100.00
4449;BME280;2237;51.870;6.160;2023-02-28T01:54:22;102994.84;;;2.91;100.00
4449;BME280;2237;51.870;6.160;2023-02-28T01:56:54;102994.31;;;2.98;100.00
4449;BME280;2237;51.870;6.160;2023-02-28T01:59:27;102997.97;;;3.03;100.00
4449;BME280;2237;51.870;6.160;2023-02-28T02:01:55;103000.84;;;3.11;100.00
4449;BME280;2237;51.870;6.160;2023-02-28T02:04:26;102985.41;;;3.11;100.00
4449;BME280;2237;51.870;6.160;2023-02-28T02:06:54;102996.78;;;3.16;100.00
4449;BME280;2237;51.870;6.160;2023-02-28T02:09:21;102994.13;;;3.14;100.00
4449;BME280;2237;51.870;6.160;2023-02-28T02:11:47;102993.38;;;3.17;100.00
4449;BME280;2237;51.870;6.160;2023-02-28T02:17:42;102987.75;;;3.25;100.00
4449;BME280;2237;51.870;6.160;2023-02-28T02:29:10;102981.88;;;3.28;98.58
4449;BME280;2237;51.870;6.160;2023-02-28T02:35:40;102986.00;;;3.24;97.38
4449;BME280;2237;51.870;6.160;2023-02-28T02:37:49;102989.25;;;3.20;96.12
4449;BME280;2237;51.870;6.160;2023-02-28T02:40:23;102979.22;;;3.26;95.91
4449;BME280;2237;51.870;6.160;2023-02-28T02:43:01;102976.72;;;3.28;95.43
4449;BME280;2237;51.870;6.160;2023-02-28T02:45:39;102976.00;;;3.32;95.31
4449;BME280;2237;51.870;6.160;2023-02-28T02:48:10;102986.53;;;3.36;94.56
4449;BME280;2237;51.870;6.160;2023-02-28T02:50:43;102983.94;;;3.36;94.16
4449;BME280;2237;51.870;6.160;2023-02-28T02:53:13;102975.50;;;3.40;93.40
4449;BME280;2237;51.870;6.160;2023-02-28T02:55:45;102974.84;;;3.45;93.14
4449;BME280;2237;51.870;6.160;2023-02-28T02:58:16;102987.72;;;3.45;92.64
4449;BME280;2237;51.870;6.160;2023-02-28T03:00:47;102992.22;;;3.50;92.35
4449;BME280;2237;51.870;6.160;2023-02-28T03:03:17;102987.13;;;3.52;92.05
4449;BME280;2237;51.870;6.160;2023-02-28T03:05:50;102995.81;;;3.54;91.96
4449;BME280;2237;51.870;6.160;2023-02-28T03:08:17;102984.63;;;3.53;92.01
4449;BME280;2237;51.870;6.160;2023-02-28T03:10:45;102987.00;;;3.49;92.17
4449;BME280;2237;51.870;6.160;2023-02-28T03:18:41;102978.09;;;3.61;91.54
4449;BME280;2237;51.870;6.160;2023-02-28T03:21:28;102985.81;;;3.61;91.36
4449;BME280;2237;51.870;6.160;2023-02-28T03:24:05;102983.88;;;3.56;91.02
4449;BME280;2237;51.870;6.160;2023-02-28T03:26:42;102987.31;;;3.56;90.94
4449;BME280;2237;51.870;6.160;2023-02-28T03:29:16;102982.44;;;3.62;90.80
4449;BME280;2237;51.870;6.160;2023-02-28T03:32:10;102980.22;;;3.71;89.84
4449;BME280;2237;51.870;6.160;2023-02-28T03:34:46;102979.47;;;3.74;89.16
4449;BME280;2237;51.870;6.160;2023-02-28T03:37:18;102984.75;;;3.77;88.95
4449;BME280;2237;51.870;6.160;2023-02-28T03:39:55;102980.56;;;3.80;88.51
4449;BME280;2237;51.870;6.160;2023-02-28T03:42:28;102979.63;;;3.78;88.12
4449;BME280;2237;51.870;6.160;2023-02-28T03:45:01;102980.69;;;3.83;88.03
4449;BME280;2237;51.870;6.160;2023-02-28T03:53:01;102982.81;;;3.93;87.25
4449;BME280;2237;51.870;6.160;2023-02-28T03:55:42;102977.66;;;3.93;87.37
4449;BME280;2237;51.870;6.160;2023-02-28T03:58:19;102972.50;;;3.93;87.30
4449;BME280;2237;51.870;6.160;2023-02-28T04:00:50;102968.34;;;3.97;87.17
4449;BME280;2237;51.870;6.160;2023-02-28T04:03:20;102969.25;;;3.97;86.57
4449;BME280;2237;51.870;6.160;2023-02-28T04:05:51;102966.66;;;3.97;86.75
4449;BME280;2237;51.870;6.160;2023-02-28T04:08:18;102972.63;;;3.96;87.21
4449;BME280;2237;51.870;6.160;2023-02-28T04:10:50;102969.56;;;3.84;87.49
4449;BME280;2237;51.870;6.160;2023-02-28T04:13:18;102963.47;;;3.82;88.09
4449;BME280;2237;51.870;6.160;2023-02-28T04:15:44;102967.00;;;3.84;88.64
4449;BME280;2237;51.870;6.160;2023-02-28T04:18:11;102972.94;;;3.83;89.11
4449;BME280;2237;51.870;6.160;2023-02-28T04:20:37;102970.38;;;3.83;89.55
4449;BME280;2237;51.870;6.160;2023-02-28T04:23:03;102970.25;;;3.80;89.79
4449;BME280;2237;51.870;6.160;2023-02-28T04:25:29;102976.28;;;3.81;90.40
4449;BME280;2237;51.870;6.160;2023-02-28T04:27:56;102978.81;;;3.79;90.88
4449;BME280;2237;51.870;6.160;2023-02-28T04:30:22;102974.22;;;3.72;91.68
4449;BME280;2237;51.870;6.160;2023-02-28T04:32:48;102976.75;;;3.71;92.23
4449;BME280;2237;51.870;6.160;2023-02-28T04:35:15;102978.97;;;3.62;92.78
4449;BME280;2237;51.870;6.160;2023-02-28T04:37:41;102980.78;;;3.64;93.68
4449;BME280;2237;51.870;6.160;2023-02-28T04:40:08;102979.22;;;3.68;93.85
4449;BME280;2237;51.870;6.160;2023-02-28T04:42:35;102977.53;;;3.68;93.90
4449;BME280;2237;51.870;6.160;2023-02-28T04:45:02;102987.13;;;3.72;93.97
4449;BME280;2237;51.870;6.160;2023-02-28T04:47:29;102982.84;;;3.73;94.02
4449;BME280;2237;51.870;6.160;2023-02-28T04:49:55;102988.69;;;3.69;94.70
4449;BME280;2237;51.870;6.160;2023-02-28T04:52:22;102987.00;;;3.69;94.91
4449;BME280;2237;51.870;6.160;2023-02-28T04:54:48;102985.25;;;3.68;95.16
4449;BME280;2237;51.870;6.160;2023-02-28T04:57:15;102985.41;;;3.73;95.27
4449;BME280;2237;51.870;6.160;2023-02-28T04:59:41;102990.66;;;3.74;95.43
4449;BME280;2237;51.870;6.160;2023-02-28T05:02:08;102992.47;;;3.77;95.30
4449;BME280;2237;51.870;6.160;2023-02-28T05:04:34;102993.28;;;3.76;95.50
4449;BME280;2237;51.870;6.160;2023-02-28T05:07:02;103001.13;;;3.79;95.76
4449;BME280;2237;51.870;6.160;2023-02-28T05:09:29;103001.06;;;3.77;96.38
4449;BME280;2237;51.870;6.160;2023-02-28T05:11:56;102990.75;;;3.77;96.59
4449;BME280;2237;51.870;6.160;2023-02-28T05:14:22;102990.66;;;3.74;96.70
4449;BME280;2237;51.870;6.160;2023-02-28T05:16:49;102990.66;;;3.74;97.06
4449;BME280;2237;51.870;6.160;2023-02-28T05:19:15;103004.47;;;3.76;97.11
4449;BME280;2237;51.870;6.160;2023-02-28T05:21:50;103006.22;;;3.77;97.74
4449;BME280;2237;51.870;6.160;2023-02-28T05:24:17;102999.38;;;3.78;97.68
4449;BME280;2237;51.870;6.160;2023-02-28T05:26:50;103008.69;;;3.74;98.00
4449;BME280;2237;51.870;6.160;2023-02-28T05:29:17;103003.53;;;3.74;98.07
4449;BME280;2237;51.870;6.160;2023-02-28T05:31:43;103001.94;;;3.78;98.19
4449;BME280;2237;51.870;6.160;2023-02-28T05:34:10;103004.47;;;3.76;98.26
4449;BME280;2237;51.870;6.160;2023-02-28T05:36:38;103005.28;;;3.75;98.15
4449;BME280;2237;51.870;6.160;2023-02-28T05:39:06;103001.78;;;3.73;97.98
4449;BME280;2237;51.870;6.160;2023-02-28T05:41:33;103004.97;;;3.68;98.29
4449;BME280;2237;51.870;6.160;2023-02-28T05:43:59;103007.34;;;3.63;98.29
4449;BME280;2237;51.870;6.160;2023-02-28T05:46:26;103009.00;;;3.61;98.56
4449;BME280;2237;51.870;6.160;2023-02-28T05:48:53;103004.66;;;3.60;98.49
4449;BME280;2237;51.870;6.160;2023-02-28T05:51:19;103013.13;;;3.58;98.81
4449;BME280;2237;51.870;6.160;2023-02-28T05:53:45;103019.00;;;3.54;99.03
4449;BME280;2237;51.870;6.160;2023-02-28T05:56:13;103018.91;;;3.52;99.28
4449;BME280;2237;51.870;6.160;2023-02-28T05:58:39;103014.78;;;3.56;99.27
4449;BME280;2237;51.870;6.160;2023-02-28T06:01:35;103017.41;;;3.57;99.69
4449;BME280;2237;51.870;6.160;2023-02-28T06:04:03;103023.94;;;3.49;99.64
4449;BME280;2237;51.870;6.160;2023-02-28T06:06:30;103027.47;;;3.51;99.99
4449;BME280;2237;51.870;6.160;2023-02-28T06:08:57;103023.25;;;3.53;100.00
4449;BME280;2237;51.870;6.160;2023-02-28T06:11:23;103026.78;;;3.55;99.72
4449;BME280;2237;51.870;6.160;2023-02-28T06:13:55;103019.38;;;3.63;99.23
4449;BME280;2237;51.870;6.160;2023-02-28T06:16:22;103021.19;;;3.65;98.82
4449;BME280;2237;51.870;6.160;2023-02-28T06:18:48;103024.72;;;3.67;98.20
4449;BME280;2237;51.870;6.160;2023-02-28T06:21:15;103033.25;;;3.66;98.31
4449;BME280;2237;51.870;6.160;2023-02-28T06:23:41;103033.25;;;3.66;98.57
4449;BME280;2237;51.870;6.160;2023-02-28T06:26:07;103037.59;;;3.67;98.74
4449;BME280;2237;51.870;6.160;2023-02-28T06:28:34;103041.19;;;3.71;98.38
4449;BME280;2237;51.870;6.160;2023-02-28T06:31:08;103049.09;;;3.75;97.73
4449;BME280;2237;51.870;6.160;2023-02-28T06:33:37;103039.72;;;3.77;97.00
4449;BME280;2237;51.870;6.160;2023-02-28T06:36:04;103045.00;;;3.80;96.05
4449;BME280;2237;51.870;6.160;2023-02-28T06:38:31;103042.53;;;3.83;95.11
4449;BME280;2237;51.870;6.160;2023-02-28T06:40:59;103039.84;;;3.80;93.99
4449;BME280;2237;51.870;6.160;2023-02-28T06:43:31;103048.66;;;3.85;93.72
4449;BME280;2237;51.870;6.160;2023-02-28T06:45:58;103044.00;;;3.97;92.51
4449;BME280;2237;51.870;6.160;2023-02-28T06:48:26;103044.47;;;3.89;91.14
4449;BME280;2237;51.870;6.160;2023-02-28T06:51:01;103045.06;;;3.82;90.30
4449;BME280;2237;51.870;6.160;2023-02-28T06:53:27;103058.75;;;3.81;89.69
4449;BME280;2237;51.870;6.160;2023-02-28T06:55:54;103057.75;;;3.77;89.11
4449;BME280;2237;51.870;6.160;2023-02-28T06:58:20;103050.59;;;3.70;88.17
4449;BME280;2237;51.870;6.160;2023-02-28T07:00:50;103060.03;;;3.70;88.34
4449;BME280;2237;51.870;6.160;2023-02-28T07:03:54;103064.88;;;3.62;88.23
4449;BME280;2237;51.870;6.160;2023-02-28T07:06:22;103065.81;;;3.64;87.17
4449;BME280;2237;51.870;6.160;2023-02-28T07:08:50;103064.25;;;3.68;86.78
4449;BME280;2237;51.870;6.160;2023-02-28T07:11:16;103061.16;;;3.76;86.12
4449;BME280;2237;51.870;6.160;2023-02-28T07:13:43;103069.16;;;3.82;84.56
4449;BME280;2237;51.870;6.160;2023-02-28T07:16:10;103062.91;;;3.77;83.50
4449;BME280;2237;51.870;6.160;2023-02-28T07:18:37;103067.06;;;3.74;82.54
4449;BME280;2237;51.870;6.160;2023-02-28T07:21:05;103065.31;;;3.73;82.42
4449;BME280;2237;51.870;6.160;2023-02-28T07:23:32;103072.84;;;3.68;81.85
4449;BME280;2237;51.870;6.160;2023-02-28T07:25:59;103062.56;;;3.68;81.82
4449;BME280;2237;51.870;6.160;2023-02-28T07:28:26;103069.31;;;3.66;81.91
4449;BME280;2237;51.870;6.160;2023-02-28T07:30:52;103079.94;;;3.53;81.51
4449;BME280;2237;51.870;6.160;2023-02-28T07:33:19;103075.59;;;3.52;81.59
4449;BME280;2237;51.870;6.160;2023-02-28T07:35:45;103077.38;;;3.53;81.47
4449;BME280;2237;51.870;6.160;2023-02-28T07:38:11;103086.03;;;3.55;80.96
4449;BME280;2237;51.870;6.160;2023-02-28T07:40:39;103075.97;;;3.61;80.78
4449;BME280;2237;51.870;6.160;2023-02-28T07:43:06;103077.03;;;3.66;79.80
4449;BME280;2237;51.870;6.160;2023-02-28T07:45:32;103078.00;;;3.68;78.86
4449;BME280;2237;51.870;6.160;2023-02-28T07:48:01;103088.31;;;3.68;77.75
4449;BME280;2237;51.870;6.160;2023-02-28T07:50:27;103083.22;;;3.70;76.98
4449;BME280;2237;51.870;6.160;2023-02-28T07:52:58;103076.50;;;3.73;76.41
4449;BME280;2237;51.870;6.160;2023-02-28T07:55:24;103080.25;;;3.81;75.61
4449;BME280;2237;51.870;6.160;2023-02-28T07:57:50;103083.78;;;3.83;74.62
4449;BME280;2237;51.870;6.160;2023-02-28T08:00:17;103082.97;;;3.84;73.71
4449;BME280;2237;51.870;6.160;2023-02-28T08:02:43;103087.44;;;3.88;73.11
4449;BME280;2237;51.870;6.160;2023-02-28T08:05:10;103086.69;;;3.91;71.45
4449;BME280;2237;51.870;6.160;2023-02-28T08:07:37;103086.81;;;3.94;70.22
4449;BME280;2237;51.870;6.160;2023-02-28T08:10:03;103087.81;;;3.97;69.32
4449;BME280;2237;51.870;6.160;2023-02-28T08:12:31;103091.22;;;3.96;67.52
4449;BME280;2237;51.870;6.160;2023-02-28T08:14:58;103088.16;;;4.07;68.12
4449;BME280;2237;51.870;6.160;2023-02-28T08:17:24;103089.25;;;4.12;67.00
4449;BME280;2237;51.870;6.160;2023-02-28T08:19:50;103089.13;;;4.09;64.81
4449;BME280;2237;51.870;6.160;2023-02-28T08:22:17;103087.44;;;4.09;63.88
4449;BME280;2237;51.870;6.160;2023-02-28T08:24:43;103086.91;;;4.18;63.93
4449;BME280;2237;51.870;6.160;2023-02-28T08:27:10;103089.84;;;4.27;63.12
4449;BME280;2237;51.870;6.160;2023-02-28T08:29:37;103090.31;;;4.17;59.67
4449;BME280;2237;51.870;6.160;2023-02-28T08:32:05;103082.38;;;4.12;59.31
4449;BME280;2237;51.870;6.160;2023-02-28T08:34:40;103088.03;;;4.04;58.29
4449;BME280;2237;51.870;6.160;2023-02-28T08:37:06;103098.97;;;3.98;58.72
4449;BME280;2237;51.870;6.160;2023-02-28T08:39:35;103091.47;;;4.03;58.31
4449;BME280;2237;51.870;6.160;2023-02-28T08:42:03;103095.47;;;4.17;58.92
4449;BME280;2237;51.870;6.160;2023-02-28T08:44:33;103092.03;;;4.38;57.74
4449;BME280;2237;51.870;6.160;2023-02-28T08:46:59;103095.81;;;4.46;58.21
4449;BME280;2237;51.870;6.160;2023-02-28T08:49:26;103092.25;;;4.44;57.70
4449;BME280;2237;51.870;6.160;2023-02-28T08:51:52;103086.00;;;4.38;56.15
4449;BME280;2237;51.870;6.160;2023-02-28T08:54:18;103084.34;;;4.40;55.91
4449;BME280;2237;51.870;6.160;2023-02-28T08:56:46;103086.25;;;4.44;56.40
4449;BME280;2237;51.870;6.160;2023-02-28T08:59:15;103085.25;;;4.40;55.39
4449;BME280;2237;51.870;6.160;2023-02-28T09:01:42;103082.91;;;4.46;55.02
4449;BME280;2237;51.870;6.160;2023-02-28T09:04:10;103085.88;;;4.57;53.58
4449;BME280;2237;51.870;6.160;2023-02-28T09:06:40;103090.59;;;4.67;54.00
4449;BME280;2237;51.870;6.160;2023-02-28T09:09:07;103086.97;;;4.86;53.20
4449;BME280;2237;51.870;6.160;2023-02-28T09:11:36;103087.63;;;4.80;53.14
4449;BME280;2237;51.870;6.160;2023-02-28T09:14:02;103083.88;;;4.72;52.61
4449;BME280;2237;51.870;6.160;2023-02-28T09:16:32;103090.91;;;4.98;51.87
4449;BME280;2237;51.870;6.160;2023-02-28T09:19:00;103087.03;;;5.11;51.19
4449;BME280;2237;51.870;6.160;2023-02-28T09:21:27;103093.03;;;5.10;50.52
4449;BME280;2237;51.870;6.160;2023-02-28T09:23:55;103087.44;;;4.98;50.73
4449;BME280;2237;51.870;6.160;2023-02-28T09:26:23;103085.13;;;5.05;51.30
4449;BME280;2237;51.870;6.160;2023-02-28T09:28:53;103077.47;;;5.08;51.27
4449;BME280;2237;51.870;6.160;2023-02-28T09:31:25;103088.66;;;5.07;51.06
4449;BME280;2237;51.870;6.160;2023-02-28T09:33:54;103085.19;;;5.07;49.90
4449;BME280;2237;51.870;6.160;2023-02-28T09:36:23;103085.28;;;5.10;48.98
4449;BME280;2237;51.870;6.160;2023-02-28T09:38:59;103089.56;;;5.09;49.22
4449;BME280;2237;51.870;6.160;2023-02-28T09:41:27;103083.97;;;4.97;48.65
4449;BME280;2237;51.870;6.160;2023-02-28T09:44:04;103074.88;;;4.85;48.09
4449;BME280;2237;51.870;6.160;2023-02-28T09:46:43;103081.25;;;4.94;47.59
4449;BME280;2237;51.870;6.160;2023-02-28T09:49:14;103072.59;;;4.92;47.01
4449;BME280;2237;51.870;6.160;2023-02-28T09:51:57;103078.31;;;4.84;46.92
4449;BME280;2237;51.870;6.160;2023-02-28T09:54:28;103077.00;;;4.95;46.62
4449;BME280;2237;51.870;6.160;2023-02-28T09:57:10;103078.44;;;5.10;46.10
4449;BME280;2237;51.870;6.160;2023-02-28T10:05:15;103080.38;;;5.41;46.58
4449;BME280;2237;51.870;6.160;2023-02-28T10:10:49;103074.44;;;5.20;44.13
4449;BME280;2237;51.870;6.160;2023-02-28T10:16:11;103064.41;;;5.28;43.76
4449;BME280;2237;51.870;6.160;2023-02-28T10:19:03;103070.81;;;5.39;43.22
4449;BME280;2237;51.870;6.160;2023-02-28T10:21:35;103065.13;;;5.24;42.24
4449;BME280;2237;51.870;6.160;2023-02-28T10:24:26;103066.22;;;5.30;42.56
4449;BME280;2237;51.870;6.160;2023-02-28T10:27:00;103070.59;;;5.33;42.39
4449;BME280;2237;51.870;6.160;2023-02-28T10:29:31;103070.84;;;5.40;42.94
4449;BME280;2237;51.870;6.160;2023-02-28T10:32:01;103063.66;;;5.32;42.53
4449;BME280;2237;51.870;6.160;2023-02-28T10:34:29;103068.56;;;5.48;42.33
4449;BME280;2237;51.870;6.160;2023-02-28T10:36:55;103057.00;;;5.63;42.21
4449;BME280;2237;51.870;6.160;2023-02-28T10:39:54;103051.56;;;5.81;41.97
4449;BME280;2237;51.870;6.160;2023-02-28T10:42:25;103045.59;;;5.82;41.47
4449;BME280;2237;51.870;6.160;2023-02-28T10:45:15;103061.91;;;5.81;41.83
4449;BME280;2237;51.870;6.160;2023-02-28T10:47:53;103059.28;;;5.80;41.38
4449;BME280;2237;51.870;6.160;2023-02-28T10:50:43;103056.06;;;5.85;40.72
4449;BME280;2237;51.870;6.160;2023-02-28T10:55:36;103063.84;;;5.87;41.08
4449;BME280;2237;51.870;6.160;2023-02-28T10:58:22;103053.78;;;5.94;41.55
4449;BME280;2237;51.870;6.160;2023-02-28T11:00:50;103040.34;;;6.06;40.99
4449;BME280;2237;51.870;6.160;2023-02-28T11:03:34;103050.13;;;6.14;42.03
4449;BME280;2237;51.870;6.160;2023-02-28T11:06:13;103047.22;;;6.05;40.51
4449;BME280;2237;51.870;6.160;2023-02-28T11:08:46;103040.69;;;6.16;40.82
4449;BME280;2237;51.870;6.160;2023-02-28T11:11:13;103037.38;;;6.20;40.90
4449;BME280;2237;51.870;6.160;2023-02-28T11:13:40;103033.50;;;6.35;40.52
4449;BME280;2237;51.870;6.160;2023-02-28T11:16:10;103038.88;;;6.42;40.85
4449;BME280;2237;51.870;6.160;2023-02-28T11:18:50;103039.78;;;6.43;40.38
4449;BME280;2237;51.870;6.160;2023-02-28T11:21:27;103032.19;;;6.20;39.45
4449;BME280;2237;51.870;6.160;2023-02-28T11:24:03;103041.78;;;6.24;40.57
4449;BME280;2237;51.870;6.160;2023-02-28T11:26:43;103029.13;;;6.34;40.07
4449;BME280;2237;51.870;6.160;2023-02-28T11:29:31;103027.56;;;6.39;39.88
4449;BME280;2237;51.870;6.160;2023-02-28T11:32:16;103023.16;;;6.36;39.28
4449;BME280;2237;51.870;6.160;2023-02-28T11:34:44;103032.56;;;6.33;39.59
4449;BME280;2237;51.870;6.160;2023-02-28T11:37:16;103036.97;;;6.35;40.00
4449;BME280;2237;51.870;6.160;2023-02-28T11:39:44;103036.25;;;6.41;39.46
4449;BME280;2237;51.870;6.160;2023-02-28T11:45:11;103033.97;;;6.50;40.19
4449;BME280;2237;51.870;6.160;2023-02-28T11:47:44;103032.19;;;6.49;39.57
4449;BME280;2237;51.870;6.160;2023-02-28T11:50:40;103020.59;;;6.64;39.69
4449;BME280;2237;51.870;6.160;2023-02-28T11:53:21;103026.09;;;6.76;39.69
4449;BME280;2237;51.870;6.160;2023-02-28T11:55:51;103024.53;;;6.81;38.76
4449;BME280;2237;51.870;6.160;2023-02-28T11:58:41;103021.13;;;6.84;39.10
4449;BME280;2237;51.870;6.160;2023-02-28T12:03:51;103024.72;;;6.89;38.87
4449;BME280;2237;51.870;6.160;2023-02-28T12:09:20;103007.44;;;7.19;39.49
4449;BME280;2237;51.870;6.160;2023-02-28T12:12:18;102997.09;;;7.21;39.95
4449;BME280;2237;51.870;6.160;2023-02-28T12:15:00;102997.22;;;7.25;39.16
4449;BME280;2237;51.870;6.160;2023-02-28T12:20:12;102984.28;;;7.60;38.95
4449;BME280;2237;51.870;6.160;2023-02-28T12:22:55;102987.84;;;7.65;38.89
4449;BME280;2237;51.870;6.160;2023-02-28T12:25:46;102983.41;;;7.61;38.67
4449;BME280;2237;51.870;6.160;2023-02-28T12:28:21;102979.84;;;7.56;39.40
4449;BME280;2237;51.870;6.160;2023-02-28T12:33:24;102966.59;;;7.81;38.87
4449;BME280;2237;51.870;6.160;2023-02-28T12:35:57;102973.19;;;8.03;39.10
4449;BME280;2237;51.870;6.160;2023-02-28T12:38:39;102979.19;;;8.02;37.67
4449;BME280;2237;51.870;6.160;2023-02-28T12:41:18;102967.81;;;7.95;38.03
4449;BME280;2237;51.870;6.160;2023-02-28T12:43:52;102964.22;;;7.90;36.99
4449;BME280;2237;51.870;6.160;2023-02-28T12:46:35;102952.81;;;7.82;37.13
4449;BME280;2237;51.870;6.160;2023-02-28T12:49:10;102963.22;;;7.83;36.64
4449;BME280;2237;51.870;6.160;2023-02-28T12:51:39;102950.19;;;7.80;37.01
4449;BME280;2237;51.870;6.160;2023-02-28T12:54:12;102955.31;;;7.79;37.08
4449;BME280;2237;51.870;6.160;2023-02-28T12:56:49;102948.44;;;7.79;36.68
4449;BME280;2237;51.870;6.160;2023-02-28T12:59:51;102947.00;;;7.92;36.96
4449;BME280;2237;51.870;6.160;2023-02-28T13:02:44;102935.91;;;7.99;36.95
4449;BME280;2237;51.870;6.160;2023-02-28T13:10:49;102945.66;;;8.09;37.09
4449;BME280;2237;51.870;6.160;2023-02-28T13:13:23;102941.56;;;8.20;36.68
4449;BME280;2237;51.870;6.160;2023-02-28T13:16:09;102932.44;;;8.37;36.88
4449;BME280;2237;51.870;6.160;2023-02-28T13:18:38;102933.47;;;8.45;37.14
4449;BME280;2237;51.870;6.160;2023-02-28T13:21:07;102934.06;;;8.32;36.37
4449;BME280;2237;51.870;6.160;2023-02-28T13:23:57;102924.59;;;8.36;36.78
4449;BME280;2237;51.870;6.160;2023-02-28T13:29:53;102927.50;;;8.49;36.09
4449;BME280;2237;51.870;6.160;2023-02-28T13:35:08;102915.22;;;8.87;36.21
4449;BME280;2237;51.870;6.160;2023-02-28T13:37:36;102911.72;;;11.62;33.99
4449;BME280;2237;51.870;6.160;2023-02-28T13:40:27;102910.28;;;17.53;26.61
4449;BME280;2237;51.870;6.160;2023-02-28T13:42:54;102903.28;;;20.73;21.76
4449;BME280;2237;51.870;6.160;2023-02-28T13:45:24;102902.00;;;23.65;18.53
4449;BME280;2237;51.870;6.160;2023-02-28T13:47:53;102889.22;;;26.69;16.40
4449;BME280;2237;51.870;6.160;2023-02-28T13:52:58;102883.09;;;31.86;11.21
4449;BME280;2237;51.870;6.160;2023-02-28T13:58:53;102883.78;;;33.19;10.29
4449;BME280;2237;51.870;6.160;2023-02-28T14:01:47;102874.69;;;34.41;10.25
4449;BME280;2237;51.870;6.160;2023-02-28T14:04:43;102885.09;;;36.07;9.18
4449;BME280;2237;51.870;6.160;2023-02-28T14:07:19;102876.81;;;36.53;8.91
4449;BME280;2237;51.870;6.160;2023-02-28T14:09:55;102862.75;;;37.11;8.83
4449;BME280;2237;51.870;6.160;2023-02-28T14:15:41;102863.13;;;37.93;8.12
4449;BME280;2237;51.870;6.160;2023-02-28T14:18:20;102861.41;;;37.58;8.12
4449;BME280;2237;51.870;6.160;2023-02-28T14:20:53;102859.50;;;36.72;8.15
4449;BME280;2237;51.870;6.160;2023-02-28T14:23:50;102847.22;;;37.21;7.84
4449;BME280;2237;51.870;6.160;2023-02-28T14:26:57;102850.78;;;36.33;8.05
4449;BME280;2237;51.870;6.160;2023-02-28T14:32:32;102849.97;;;34.93;8.52
4449;BME280;2237;51.870;6.160;2023-02-28T14:38:21;102871.84;;;35.57;8.65
4449;BME280;2237;51.870;6.160;2023-02-28T14:40:51;102855.91;;;34.49;8.52
4449;BME280;2237;51.870;6.160;2023-02-28T14:43:24;102854.78;;;34.42;8.73
4449;BME280;2237;51.870;6.160;2023-02-28T14:45:53;102851.03;;;34.24;8.60
4449;BME280;2237;51.870;6.160;2023-02-28T14:48:20;102852.25;;;34.88;8.69
4449;BME280;2237;51.870;6.160;2023-02-28T14:50:53;102852.66;;;34.93;8.73
4449;BME280;2237;51.870;6.160;2023-02-28T14:53:22;102846.09;;;33.98;8.28
4449;BME280;2237;51.870;6.160;2023-02-28T14:55:49;102848.22;;;32.82;9.60
4449;BME280;2237;51.870;6.160;2023-02-28T15:00:56;102845.22;;;32.96;9.07
4449;BME280;2237;51.870;6.160;2023-02-28T15:03:31;102848.59;;;33.30;9.54
4449;BME280;2237;51.870;6.160;2023-02-28T15:06:00;102854.66;;;33.22;9.51